Time;durP1;ratioP1;P1;durP2;ratioP2;P2;SDS_P1;SDS_P2;PMS_P1;PMS_P2;Temp;Humidity;BMP_temperature;BMP_pressure;BME280_temperature;BME280_humidity;BME280_pressure;Samples;Min_cycle;Max_cycle;Signal;HPM_P1;HPM_P2
2022/05/25 00:02:26;;;;;;;1.50;0.50;;;;;;;11.35;57.67;95758.75;10408561;27;97091;-68
2022/05/25 00:07:29;;;;;;;1.85;0.60;;;;;;;11.41;57.05;95761.69;10411908;27;101058;-68
2022/05/25 00:12:33;;;;;;;0.88;0.50;;;;;;;11.43;56.98;95764.94;10412618;27;96972;-68
2022/05/25 00:17:39;;;;;;;2.65;0.50;;;;;;;11.42;56.64;95748.44;10408331;27;98428;-68
2022/05/25 00:22:45;;;;;;;1.40;0.60;;;;;;;11.42;56.38;95758.09;10411256;27;98837;-68
2022/05/25 00:27:49;;;;;;;0.75;0.57;;;;;;;11.45;56.91;95757.75;10413438;27;97037;-69
2022/05/25 00:32:52;;;;;;;2.37;0.50;;;;;;;11.59;56.55;95764.09;10406140;27;99397;-68
2022/05/25 00:37:55;;;;;;;1.05;0.50;;;;;;;11.68;56.97;95763.13;10413925;27;97121;-68
2022/05/25 00:42:59;;;;;;;0.75;0.35;;;;;;;11.59;57.17;95751.03;10407047;27;98106;-68
2022/05/25 00:48:04;;;;;;;1.20;0.30;;;;;;;11.44;57.67;95769.22;10407602;27;96920;-68
2022/05/25 00:53:07;;;;;;;1.52;0.50;;;;;;;11.44;56.96;95771.81;10399970;27;99947;-69
2022/05/25 00:58:11;;;;;;;3.13;0.60;;;;;;;11.48;57.18;95778.34;10408488;27;98849;-68
2022/05/25 01:03:15;;;;;;;1.00;0.50;;;;;;;11.45;57.60;95768.22;10411004;27;96995;-68
2022/05/25 01:08:32;;;;;;;0.93;0.40;;;;;;;11.41;57.32;95787.84;10413948;27;98440;-68
2022/05/25 01:13:42;;;;;;;0.98;0.50;;;;;;;11.33;57.91;95791.28;10411112;27;98746;-68
2022/05/25 01:18:53;;;;;;;2.60;0.50;;;;;;;11.24;57.73;95781.75;10401849;27;98198;-69
2022/05/25 01:24:13;;;;;;;0.93;0.38;;;;;;;11.13;57.82;95781.09;10414488;27;96948;-68
2022/05/25 01:29:55;;;;;;;1.80;0.75;;;;;;;11.10;57.85;95775.38;10410921;27;96906;-68
2022/05/25 01:35:04;;;;;;;1.10;0.47;;;;;;;10.88;58.26;95776.84;10412534;27;99717;-68
2022/05/25 01:40:15;;;;;;;1.83;0.70;;;;;;;10.76;57.93;95784.16;10414420;27;97098;-68
2022/05/25 01:45:21;;;;;;;0.65;0.40;;;;;;;10.68;58.22;95784.13;10406814;27;100011;-68
2022/05/25 01:50:30;;;;;;;0.98;0.40;;;;;;;10.53;57.99;95784.75;10395750;27;97769;-69
2022/05/25 01:55:37;;;;;;;1.42;0.50;;;;;;;10.50;58.14;95792.09;10396751;27;98672;-68
2022/05/25 02:00:44;;;;;;;0.63;0.35;;;;;;;10.45;58.92;95787.31;10400195;27;97571;-68
2022/05/25 02:06:02;;;;;;;2.22;0.65;;;;;;;10.35;59.50;95786.63;10410558;28;98182;-68
2022/05/25 02:11:16;;;;;;;1.20;0.60;;;;;;;10.21;59.19;95791.47;10404475;27;96847;-68
2022/05/25 02:16:31;;;;;;;1.00;0.50;;;;;;;10.08;60.44;95785.88;10409657;27;96863;-68
2022/05/25 02:21:41;;;;;;;1.05;0.57;;;;;;;9.90;61.67;95792.94;10409103;27;96960;-68
2022/05/25 02:26:52;;;;;;;2.17;0.68;;;;;;;9.71;62.84;95797.38;10405447;28;98657;-68
2022/05/25 02:32:00;;;;;;;1.77;0.50;;;;;;;9.61;62.71;95807.09;10406394;27;98751;-68
2022/05/25 02:37:04;;;;;;;1.17;0.60;;;;;;;9.57;62.84;95808.38;10409647;27;98133;-68
2022/05/25 02:42:13;;;;;;;2.42;0.85;;;;;;;9.54;63.27;95803.47;10406891;27;97089;-68
2022/05/25 02:47:18;;;;;;;2.42;0.90;;;;;;;9.44;63.52;95809.59;10404267;27;98605;-68
2022/05/25 02:52:21;;;;;;;2.47;0.57;;;;;;;9.28;63.20;95814.63;10409118;27;96933;-68
2022/05/25 02:57:23;;;;;;;1.83;0.60;;;;;;;9.20;64.15;95822.41;10409931;27;96857;-68
2022/05/25 03:02:28;;;;;;;1.15;0.50;;;;;;;9.03;64.78;95831.84;10408790;27;97745;-68
2022/05/25 03:07:31;;;;;;;2.70;0.60;;;;;;;9.03;64.16;95831.84;10410401;27;96990;-68
2022/05/25 03:12:33;;;;;;;1.00;0.50;;;;;;;8.97;64.51;95845.44;10409955;27;100248;-67
2022/05/25 03:17:37;;;;;;;2.47;0.77;;;;;;;8.91;65.13;95849.47;10413697;27;98764;-68
2022/05/25 03:22:44;;;;;;;0.50;0.43;;;;;;;8.87;65.25;95858.56;10418018;27;97665;-68
2022/05/25 03:27:47;;;;;;;1.20;0.60;;;;;;;8.67;65.69;95874.28;10416352;27;98013;-68
2022/05/25 03:32:51;;;;;;;2.08;0.60;;;;;;;8.55;66.46;95875.41;10414721;27;96867;-67
2022/05/25 03:37:54;;;;;;;0.67;0.43;;;;;;;8.48;66.21;95880.41;10410697;27;96906;-68
2022/05/25 03:42:57;;;;;;;1.08;0.60;;;;;;;8.40;66.51;95877.69;10407148;27;97205;-68
2022/05/25 03:48:07;;;;;;;1.20;0.60;;;;;;;8.54;65.86;95879.81;10412524;27;99840;-67
2022/05/25 03:53:12;;;;;;;2.97;0.70;;;;;;;8.66;65.81;95882.25;10402817;27;99020;-68
2022/05/25 03:58:15;;;;;;;1.63;0.68;;;;;;;8.75;65.07;95886.56;10415068;27;97144;-67
2022/05/25 04:03:19;;;;;;;1.00;0.57;;;;;;;8.72;65.34;95887.69;10410539;27;96895;-68
2022/05/25 04:08:22;;;;;;;1.88;0.60;;;;;;;8.66;65.60;95897.88;10410955;27;98530;-67
2022/05/25 04:13:25;;;;;;;0.90;0.63;;;;;;;8.51;66.35;95902.72;10404801;27;98950;-68
2022/05/25 04:18:30;;;;;;;0.93;0.60;;;;;;;8.56;66.49;95910.91;10410987;27;98487;-67
2022/05/25 04:23:33;;;;;;;1.52;0.60;;;;;;;8.59;66.17;95913.25;10414391;28;96938;-68
2022/05/25 04:28:36;;;;;;;1.88;0.70;;;;;;;8.65;65.87;95917.84;10412835;28;97131;-67
2022/05/25 04:33:41;;;;;;;2.05;0.60;;;;;;;8.75;65.48;95917.03;10402009;27;97313;-68
2022/05/25 04:38:43;;;;;;;1.00;0.50;;;;;;;8.73;65.85;95925.78;10414843;27;96843;-68
2022/05/25 04:43:46;;;;;;;0.70;0.60;;;;;;;8.80;65.34;95922.63;10407202;27;96835;-67
2022/05/25 04:48:50;;;;;;;1.63;0.50;;;;;;;8.78;66.31;95925.34;10409620;27;98052;-67
2022/05/25 04:53:53;;;;;;;0.50;0.40;;;;;;;8.72;65.44;95939.78;10413261;27;97005;-68
2022/05/25 04:58:56;;;;;;;0.82;0.50;;;;;;;8.77;65.68;95948.94;10409916;27;96772;-67
2022/05/25 05:04:00;;;;;;;1.27;0.40;;;;;;;8.87;65.71;95947.94;10413142;28;96814;-67
2022/05/25 05:09:06;;;;;;;1.75;0.75;;;;;;;8.97;65.88;95947.91;10408594;27;97966;-68
2022/05/25 05:14:09;;;;;;;1.73;0.73;;;;;;;9.06;65.99;95949.63;10411768;27;97086;-67
2022/05/25 05:19:13;;;;;;;1.35;0.70;;;;;;;9.16;66.04;95961.75;10404160;27;100465;-68
2022/05/25 05:24:16;;;;;;;3.13;0.80;;;;;;;9.30;65.12;95961.28;10405302;27;98798;-68
2022/05/25 05:29:19;;;;;;;1.23;0.80;;;;;;;9.50;65.87;95961.19;10409556;27;96834;-67
2022/05/25 05:34:23;;;;;;;2.80;0.93;;;;;;;9.69;66.79;95963.66;10412912;27;97967;-68
2022/05/25 05:39:29;;;;;;;1.05;0.90;;;;;;;9.88;66.83;95962.69;10409886;27;98482;-68
2022/05/25 05:44:36;;;;;;;1.90;0.82;;;;;;;10.06;67.01;95965.25;10405988;27;96959;-68
2022/05/25 05:49:41;;;;;;;4.20;0.85;;;;;;;10.24;66.11;95976.50;10404924;27;96777;-68
2022/05/25 05:54:44;;;;;;;1.38;1.02;;;;;;;10.45;65.34;95967.50;10410897;27;98593;-68
2022/05/25 05:59:47;;;;;;;3.33;1.08;;;;;;;10.56;64.91;95976.88;10411048;27;98744;-68
2022/05/25 06:04:52;;;;;;;2.10;1.20;;;;;;;10.68;64.14;95987.91;10401730;27;97149;-68
2022/05/25 06:09:56;;;;;;;2.23;1.10;;;;;;;10.80;64.94;95986.66;10404340;27;96916;-67
2022/05/25 06:14:59;;;;;;;2.40;1.20;;;;;;;11.11;64.76;95991.38;10398877;27;97188;-67
2022/05/25 06:20:04;;;;;;;3.10;1.05;;;;;;;11.32;64.04;95989.19;10406651;27;97592;-68
2022/05/25 06:25:08;;;;;;;1.98;0.70;;;;;;;11.43;63.45;95987.25;10412314;27;98738;-68
2022/05/25 06:30:12;;;;;;;2.58;0.50;;;;;;;11.63;62.13;95983.41;10403009;27;98086;-68
2022/05/25 06:35:17;;;;;;;2.87;1.07;;;;;;;11.83;62.00;95990.94;10404106;27;99284;-68
2022/05/25 06:40:19;;;;;;;1.33;0.60;;;;;;;12.14;61.65;95992.94;10401587;27;97277;-68
2022/05/25 06:45:23;;;;;;;3.50;0.90;;;;;;;12.48;61.03;95990.97;10411615;27;98805;-68
2022/05/25 06:50:28;;;;;;;0.93;0.50;;;;;;;12.73;60.60;95997.97;10411297;28;98076;-68
2022/05/25 06:55:31;;;;;;;1.77;0.80;;;;;;;12.93;59.63;95994.03;10412158;28;96903;-68
2022/05/25 07:00:34;;;;;;;1.10;0.77;;;;;;;13.05;59.28;95997.09;10411750;27;96971;-68
2022/05/25 07:05:38;;;;;;;1.85;0.75;;;;;;;13.31;59.41;96009.97;10411396;28;98630;-68
2022/05/25 07:10:45;;;;;;;2.27;0.73;;;;;;;13.46;59.01;96011.84;10411438;28;97005;-68
2022/05/25 07:15:48;;;;;;;1.85;0.60;;;;;;;13.59;58.17;96015.56;10412517;28;97008;-68
2022/05/25 07:20:53;;;;;;;2.78;1.10;;;;;;;13.92;57.68;96014.56;10405599;28;97021;-68
2022/05/25 07:25:56;;;;;;;1.27;0.70;;;;;;;14.19;58.02;96021.94;10384934;28;97062;-68
2022/05/25 07:31:03;;;;;;;2.55;0.73;;;;;;;14.34;57.80;96032.50;10384181;28;96777;-67
2022/05/25 07:36:11;;;;;;;3.13;0.90;;;;;;;14.51;56.93;96020.06;10388520;28;97098;-68
2022/05/25 07:41:14;;;;;;;2.17;0.60;;;;;;;14.70;56.71;96026.63;10386246;28;96980;-68
2022/05/25 07:46:16;;;;;;;1.30;0.80;;;;;;;14.97;56.42;96027.00;10381597;28;96788;-68
2022/05/25 07:51:21;;;;;;;1.70;0.85;;;;;;;15.15;55.51;96029.31;10387037;28;96795;-68
2022/05/25 07:56:24;;;;;;;1.38;0.70;;;;;;;15.40;55.39;96029.81;10389475;28;96856;-68
2022/05/25 08:06:59;;;;;;;4.60;1.50;;;;;;;15.57;53.62;96029.66;10402936;28;96827;-68
2022/05/25 08:12:04;;;;;;;1.20;0.70;;;;;;;15.70;54.06;96040.34;10395126;27;96764;-68
2022/05/25 08:17:07;;;;;;;3.45;0.57;;;;;;;15.90;52.92;96045.03;10392190;27;97380;-68
2022/05/25 08:22:12;;;;;;;2.45;0.70;;;;;;;16.06;52.68;96040.34;10388280;28;96976;-67
2022/05/25 08:27:15;;;;;;;2.22;1.00;;;;;;;16.29;52.09;96046.44;10394614;28;96910;-68
2022/05/25 08:32:18;;;;;;;2.20;0.80;;;;;;;16.53;51.23;96059.25;10393069;28;96741;-68
2022/05/25 08:37:22;;;;;;;3.67;0.90;;;;;;;16.62;51.49;96060.75;10386771;28;96993;-68
2022/05/25 08:42:30;;;;;;;0.93;0.63;;;;;;;16.91;51.21;96048.41;10392533;28;97027;-67
2022/05/25 08:47:34;;;;;;;2.45;0.90;;;;;;;17.03;50.55;96055.81;10393621;28;100081;-68
2022/05/25 08:52:39;;;;;;;0.85;0.60;;;;;;;17.21;50.29;96061.41;10386879;27;96705;-68
2022/05/25 08:57:48;;;;;;;2.00;0.60;;;;;;;17.35;50.18;96063.13;10391252;27;96759;-68
2022/05/25 09:03:00;;;;;;;2.30;0.90;;;;;;;17.58;48.93;96051.47;10392471;28;96868;-67
2022/05/25 09:08:14;;;;;;;1.80;0.73;;;;;;;17.74;47.88;96048.47;10389307;27;96758;-68
2022/05/25 09:13:23;;;;;;;1.35;0.65;;;;;;;17.98;47.17;96054.28;10386066;28;96997;-67
2022/05/25 09:18:33;;;;;;;1.88;0.70;;;;;;;18.19;46.78;96060.47;10392258;28;97416;-68
2022/05/25 09:23:38;;;;;;;2.20;0.60;;;;;;;18.33;46.12;96050.72;10391814;28;96920;-68
2022/05/25 09:28:46;;;;;;;3.58;0.70;;;;;;;18.24;46.26;96058.84;10386264;28;96702;-67
2022/05/25 09:33:53;;;;;;;2.03;0.80;;;;;;;18.50;45.31;96057.25;10387564;28;96951;-68
2022/05/25 09:39:05;;;;;;;1.15;0.50;;;;;;;18.79;44.70;96077.19;10391616;28;96986;-68
2022/05/25 09:44:12;;;;;;;2.78;0.60;;;;;;;19.20;44.35;96070.09;10389844;28;97182;-68
2022/05/25 09:49:28;;;;;;;1.20;0.40;;;;;;;19.46;43.70;96061.28;10384955;28;100162;-68
2022/05/25 09:54:43;;;;;;;1.65;0.77;;;;;;;19.78;42.03;96075.47;10389785;28;96949;-68
2022/05/25 09:59:55;;;;;;;0.70;0.50;;;;;;;20.04;42.10;96078.22;10403292;27;100091;-68
2022/05/25 10:05:11;;;;;;;1.85;0.85;;;;;;;20.30;41.61;96078.06;10408954;27;96948;-68
2022/05/25 10:10:16;;;;;;;1.77;0.50;;;;;;;20.38;40.72;96064.56;10413290;27;96924;-68
2022/05/25 10:15:30;;;;;;;1.38;0.50;;;;;;;20.51;39.25;96081.44;10408967;27;97204;-68
2022/05/25 10:20:46;;;;;;;1.48;0.40;;;;;;;20.39;39.78;96081.31;10408038;28;97003;-68
2022/05/25 10:25:53;;;;;;;1.55;0.50;;;;;;;20.59;39.21;96083.84;10408074;28;96878;-68
2022/05/25 10:36:49;;;;;;;0.85;0.47;;;;;;;20.58;39.27;96084.84;10414019;28;96921;-68
2022/05/25 10:42:07;;;;;;;2.28;0.40;;;;;;;20.29;38.77;96084.44;10401612;27;99067;-68
2022/05/25 10:47:21;;;;;;;2.50;0.50;;;;;;;20.35;39.47;96080.91;10400738;27;98551;-67
2022/05/25 10:52:32;;;;;;;2.30;0.57;;;;;;;19.93;40.08;96077.06;10411141;28;98338;-66
2022/05/25 10:58:06;;;;;;;2.97;0.60;;;;;;;19.74;39.71;96084.03;10412977;27;96929;-67
2022/05/25 11:03:34;;;;;;;4.65;0.95;;;;;;;19.85;39.68;96093.19;10404258;27;98173;-66
2022/05/25 11:08:48;;;;;;;1.88;0.50;;;;;;;20.01;39.32;96082.13;10407375;27;96979;-66
2022/05/25 11:24:28;;;;;;;1.52;0.45;;;;;;;20.12;38.78;96085.94;10393629;28;98485;-66
2022/05/25 11:29:48;;;;;;;0.93;0.40;;;;;;;19.74;38.69;96079.53;10389967;28;98570;-66
2022/05/25 11:35:12;;;;;;;2.03;0.47;;;;;;;19.96;39.55;96082.75;10390092;28;102728;-67
2022/05/25 11:40:29;;;;;;;0.75;0.50;;;;;;;20.42;38.92;96080.06;10379597;28;97402;-67
2022/05/25 11:45:49;;;;;;;1.35;0.40;;;;;;;20.82;39.38;96074.50;10392426;28;97040;-66
2022/05/25 11:51:23;;;;;;;0.47;0.43;;;;;;;21.08;38.37;96076.13;10381187;28;97290;-67
2022/05/25 11:56:48;;;;;;;0.57;0.40;;;;;;;21.24;38.84;96077.41;10380794;28;96819;-67
2022/05/25 12:01:59;;;;;;;1.75;0.70;;;;;;;21.23;39.26;96079.25;10373672;28;97220;-66
2022/05/25 12:07:31;;;;;;;1.00;0.60;;;;;;;21.31;39.16;96076.34;10376366;28;96738;-66
2022/05/25 12:12:41;;;;;;;1.50;0.40;;;;;;;21.35;39.27;96074.03;10377933;28;96912;-67
2022/05/25 12:17:54;;;;;;;2.60;0.50;;;;;;;21.58;38.75;96084.03;10381626;28;96806;-66
2022/05/25 12:23:03;;;;;;;1.08;0.30;;;;;;;22.08;38.72;96088.41;10382009;27;96981;-67
2022/05/25 12:28:09;;;;;;;1.60;0.70;;;;;;;22.38;37.91;96098.25;10385136;27;97099;-67
2022/05/25 12:33:18;;;;;;;2.88;0.60;;;;;;;22.75;36.82;96103.47;10373851;27;98122;-67
2022/05/25 12:38:23;;;;;;;1.65;0.60;;;;;;;22.78;37.27;96093.16;10361397;28;96741;-67
2022/05/25 12:43:52;;;;;;;0.73;0.50;;;;;;;22.91;36.29;96102.81;10350138;27;96744;-67
2022/05/25 12:48:58;;;;;;;2.72;0.82;;;;;;;22.88;36.54;96097.16;10365525;28;98551;-67
2022/05/25 12:54:04;;;;;;;1.92;0.50;;;;;;;22.88;36.67;96100.63;10360624;28;96877;-67
2022/05/25 12:59:12;;;;;;;1.05;0.50;;;;;;;22.43;37.27;96109.03;10355622;28;101629;-66
2022/05/25 13:04:42;;;;;;;2.95;0.90;;;;;;;22.13;37.19;96107.16;10354442;28;97024;-67
2022/05/25 13:09:45;;;;;;;1.13;0.43;;;;;;;22.31;37.37;96108.16;10359688;27;96877;-67
2022/05/25 13:14:58;;;;;;;0.93;0.50;;;;;;;22.94;36.86;96107.69;10361760;28;100064;-67
2022/05/25 13:20:06;;;;;;;1.65;0.52;;;;;;;23.32;36.04;96103.81;10353411;28;96759;-67
2022/05/25 13:25:27;;;;;;;1.67;0.70;;;;;;;23.25;36.03;96092.41;10354809;27;97079;-67
2022/05/25 13:30:46;;;;;;;1.17;0.70;;;;;;;23.09;36.08;96095.78;10361397;28;96922;-67
2022/05/25 13:35:51;;;;;;;2.65;0.60;;;;;;;22.53;36.79;96097.88;10360074;28;96849;-67
2022/05/25 13:40:59;;;;;;;1.00;0.57;;;;;;;22.18;36.92;96109.97;10350563;28;96984;-67
2022/05/25 13:46:05;;;;;;;0.80;0.50;;;;;;;21.78;37.33;96113.09;10355511;27;96674;-67
2022/05/25 13:51:08;;;;;;;1.75;0.82;;;;;;;21.78;37.95;96110.44;10358397;28;97530;-66
2022/05/25 13:56:13;;;;;;;0.70;0.60;;;;;;;21.94;37.53;96108.22;10356737;28;96828;-66
2022/05/25 14:01:22;;;;;;;0.80;0.45;;;;;;;22.43;36.41;96112.50;10352147;28;96924;-67
2022/05/25 14:06:26;;;;;;;2.00;0.70;;;;;;;23.50;35.43;96097.56;10358772;28;96837;-67
2022/05/25 14:11:37;;;;;;;1.50;0.57;;;;;;;24.98;34.68;96103.38;10359165;28;99827;-66
2022/05/25 14:16:49;;;;;;;2.70;0.68;;;;;;;25.00;33.87;96094.03;10349736;28;96720;-67
2022/05/25 14:21:54;;;;;;;1.15;0.40;;;;;;;25.48;33.48;96107.06;10356777;28;96957;-67
2022/05/25 14:26:58;;;;;;;1.05;0.38;;;;;;;25.46;33.28;96099.31;10357806;28;96989;-67
2022/05/25 14:32:14;;;;;;;0.70;0.47;;;;;;;26.31;32.15;96101.75;10352966;27;96681;-67
2022/05/25 14:37:19;;;;;;;2.35;0.50;;;;;;;26.44;31.62;96111.28;10350517;28;96927;-67
2022/05/25 14:42:27;;;;;;;1.10;0.50;;;;;;;26.03;32.17;96108.88;10359590;28;97448;-67
2022/05/25 14:47:35;;;;;;;2.47;0.50;;;;;;;25.38;32.74;96111.19;10357830;28;96845;-67
2022/05/25 14:52:47;;;;;;;1.52;0.45;;;;;;;24.66;33.72;96114.53;10348146;28;98619;-67
2022/05/25 14:58:12;;;;;;;1.98;0.80;;;;;;;24.15;33.87;96113.59;10356969;28;96884;-67
2022/05/25 15:03:38;;;;;;;2.63;0.80;;;;;;;24.42;34.35;96120.00;10356395;28;100029;-67
2022/05/25 15:08:42;;;;;;;1.70;0.55;;;;;;;25.43;34.46;96127.31;10356831;28;96745;-67
2022/05/25 15:19:08;;;;;;;1.42;0.50;;;;;;;26.09;33.55;96123.16;10363051;28;96925;-67
2022/05/25 15:24:16;;;;;;;1.25;0.57;;;;;;;26.16;32.43;96118.44;10356361;28;96980;-67
2022/05/25 15:29:28;;;;;;;2.50;0.43;;;;;;;26.81;31.21;96114.03;10354658;28;96740;-67
2022/05/25 15:34:35;;;;;;;2.25;0.57;;;;;;;26.98;31.16;96116.63;10346818;28;96953;-68
2022/05/25 15:39:39;;;;;;;1.75;0.57;;;;;;;27.99;29.87;96114.09;10357879;28;98017;-68
2022/05/25 15:44:42;;;;;;;2.22;0.40;;;;;;;28.08;29.73;96122.47;10371671;28;96794;-68
2022/05/25 15:49:47;;;;;;;0.50;0.30;;;;;;;28.06;30.66;96133.47;10351014;28;96846;-67
2022/05/25 15:54:50;;;;;;;1.42;0.45;;;;;;;27.98;29.73;96120.56;10376519;28;98671;-68
2022/05/25 15:59:54;;;;;;;1.48;0.55;;;;;;;27.75;29.97;96136.00;10369018;28;99904;-67
2022/05/25 16:04:59;;;;;;;1.45;0.57;;;;;;;28.78;28.59;96133.72;10375515;28;96954;-67
2022/05/25 16:10:01;;;;;;;3.50;0.55;;;;;;;29.80;27.97;96145.59;10374175;28;96768;-67
2022/05/25 16:15:05;;;;;;;1.25;0.50;;;;;;;29.42;28.41;96137.00;10373113;28;96850;-68
2022/05/25 16:20:11;;;;;;;1.42;0.50;;;;;;;29.15;28.25;96143.47;10381242;28;97112;-67
2022/05/25 16:25:19;;;;;;;1.85;0.40;;;;;;;28.77;28.18;96140.16;10378573;28;97737;-67
2022/05/25 16:30:21;;;;;;;0.82;0.47;;;;;;;27.93;29.21;96145.50;10379726;28;97278;-68
2022/05/25 16:35:26;;;;;;;2.40;0.65;;;;;;;27.28;30.05;96155.50;10377524;28;98001;-68
2022/05/25 16:40:29;;;;;;;1.38;0.50;;;;;;;27.27;29.86;96156.56;10372238;28;97192;-68
2022/05/25 16:45:33;;;;;;;2.38;0.45;;;;;;;26.55;30.66;96158.53;10376337;28;98016;-67
2022/05/25 16:50:37;;;;;;;1.00;0.43;;;;;;;25.89;31.29;96166.53;10376102;28;97431;-68
2022/05/25 16:55:40;;;;;;;1.13;0.38;;;;;;;25.42;31.70;96178.38;10376373;28;99519;-67
2022/05/25 17:00:46;;;;;;;;;;;;;;;25.23;31.94;96169.78;10385687;28;96835;-66
2022/05/25 17:05:51;;;;;;;2.05;1.15;;;;;;;25.03;32.50;96189.78;10380594;28;97108;-66
2022/05/25 17:10:57;;;;;;;3.90;0.80;;;;;;;24.96;32.59;96188.31;10379038;28;98221;-66
2022/05/25 17:16:02;;;;;;;3.60;1.17;;;;;;;24.58;33.12;96197.72;10375074;28;97157;-68
2022/05/25 17:21:06;;;;;;;1.92;0.73;;;;;;;24.17;34.00;96197.69;10379226;28;96940;-67
2022/05/25 17:26:10;;;;;;;1.30;0.40;;;;;;;23.96;33.82;96196.44;10372785;28;96869;-67
2022/05/25 17:31:13;;;;;;;1.63;0.60;;;;;;;23.32;34.29;96210.41;10374542;28;96824;-67
2022/05/25 17:41:51;;;;;;;1.83;0.73;;;;;;;22.30;35.57;96216.47;10356647;28;98055;-63
2022/05/25 17:46:57;;;;;;;1.85;0.50;;;;;;;21.62;36.21;96217.34;10371079;28;97856;-63
2022/05/25 17:52:02;;;;;;;2.10;0.70;;;;;;;21.11;37.32;96219.13;10371115;28;97028;-63
2022/05/25 17:57:06;;;;;;;2.95;0.50;;;;;;;20.62;38.50;96231.22;10371032;28;96980;-63
2022/05/25 18:02:10;;;;;;;1.08;0.43;;;;;;;20.21;38.07;96238.50;10369456;28;101244;-66
2022/05/25 18:07:17;;;;;;;1.53;0.53;;;;;;;19.86;39.40;96246.72;10370205;28;97358;-65
2022/05/25 18:12:20;;;;;;;3.05;0.60;;;;;;;19.61;39.11;96249.19;10364767;28;97868;-66
2022/05/25 18:17:25;;;;;;;2.13;0.60;;;;;;;19.28;40.63;96265.03;10355803;28;100823;-66
2022/05/25 18:22:30;;;;;;;1.00;0.40;;;;;;;19.08;40.47;96257.88;10363071;28;98867;-65
2022/05/25 18:27:33;;;;;;;0.95;0.40;;;;;;;18.95;40.45;96281.66;10365849;28;96849;-66
2022/05/25 18:32:37;;;;;;;6.75;5.07;;;;;;;18.71;41.07;96278.53;10369151;28;98080;-65
2022/05/25 18:37:42;;;;;;;1.33;0.70;;;;;;;18.64;40.36;96286.44;10359001;28;98496;-66
2022/05/25 18:42:45;;;;;;;2.67;0.60;;;;;;;18.49;40.49;96288.38;10355641;28;98246;-65
2022/05/25 18:47:49;;;;;;;1.73;0.47;;;;;;;18.39;40.90;96288.75;10348692;28;98768;-68
2022/05/25 18:52:53;;;;;;;1.98;0.68;;;;;;;18.32;41.11;96316.97;10353364;28;98504;-65
2022/05/25 18:57:56;;;;;;;1.67;0.60;;;;;;;18.24;40.98;96306.56;10351283;28;97211;-65
2022/05/25 19:02:59;;;;;;;1.20;0.47;;;;;;;18.15;41.29;96315.66;10360465;28;97689;-65
2022/05/25 19:08:04;;;;;;;3.37;0.90;;;;;;;18.10;41.92;96327.63;10355574;28;99158;-65
2022/05/25 19:13:07;;;;;;;2.50;0.50;;;;;;;18.02;42.25;96326.97;10360082;28;98090;-65
2022/05/25 19:18:11;;;;;;;0.65;0.47;;;;;;;17.83;42.28;96346.91;10349806;28;98411;-65
2022/05/25 19:23:21;;;;;;;3.83;0.63;;;;;;;17.80;42.36;96339.34;10346783;28;104156;-65
2022/05/25 19:28:25;;;;;;;2.53;0.93;;;;;;;17.75;42.98;96356.59;10360390;28;96863;-66
2022/05/25 19:33:28;;;;;;;4.15;0.63;;;;;;;17.72;42.88;96356.16;10352321;28;98963;-64
2022/05/25 19:38:37;;;;;;;1.42;0.70;;;;;;;17.65;43.17;96371.97;10355978;28;97910;-65
2022/05/25 19:43:44;;;;;;;1.02;0.40;;;;;;;17.46;43.35;96383.16;10361555;28;98497;-65
2022/05/25 19:48:47;;;;;;;2.03;0.70;;;;;;;17.29;44.04;96393.94;10369494;28;97174;-66
2022/05/25 19:53:53;;;;;;;0.52;0.47;;;;;;;17.19;44.49;96406.59;10358195;28;98563;-65
2022/05/25 19:58:56;;;;;;;1.02;0.50;;;;;;;17.11;44.48;96407.53;10367085;28;96943;-65
2022/05/25 20:03:59;;;;;;;1.15;0.60;;;;;;;17.07;44.83;96427.38;10359547;28;97528;-65
2022/05/25 20:09:05;;;;;;;0.90;0.47;;;;;;;17.03;45.07;96433.22;10356359;28;98587;-65
2022/05/25 20:14:08;;;;;;;2.13;0.57;;;;;;;16.97;45.26;96443.50;10346773;28;98435;-65
2022/05/25 20:19:11;;;;;;;1.17;0.60;;;;;;;16.89;45.43;96450.69;10356113;28;97557;-65
2022/05/25 20:24:15;;;;;;;2.13;0.52;;;;;;;16.83;45.44;96457.50;10352675;28;98623;-65
2022/05/25 20:29:18;;;;;;;1.67;0.55;;;;;;;16.74;45.71;96458.56;10356895;28;97990;-65
2022/05/25 20:34:21;;;;;;;2.03;0.70;;;;;;;16.61;45.94;96467.91;10371020;28;98029;-65
2022/05/25 20:39:25;;;;;;;4.07;0.90;;;;;;;16.48;46.43;96467.69;10367992;28;100530;-64
2022/05/25 20:44:28;;;;;;;3.33;1.02;;;;;;;16.44;45.89;96484.88;10366013;28;97239;-65
2022/05/25 20:49:31;;;;;;;3.45;2.10;;;;;;;16.40;46.18;96484.44;10360970;28;96916;-64
2022/05/25 20:54:36;;;;;;;2.10;0.60;;;;;;;16.35;46.62;96496.50;10368613;28;98154;-65
2022/05/25 20:59:39;;;;;;;2.40;1.25;;;;;;;16.33;46.09;96498.47;10366088;28;96949;-64
2022/05/25 21:04:43;;;;;;;3.97;2.40;;;;;;;16.34;46.22;96505.41;10368884;28;97269;-65
2022/05/25 21:09:47;;;;;;;2.72;1.88;;;;;;;16.30;46.56;96512.84;10366328;28;96888;-65
2022/05/25 21:14:50;;;;;;;;;;;;;;;16.24;46.13;96519.66;10365414;28;99333;-65
2022/05/25 21:19:53;;;;;;;1.77;1.13;;;;;;;16.11;46.39;96526.50;10365336;28;97003;-65
2022/05/25 21:24:58;;;;;;;2.20;1.25;;;;;;;15.95;47.36;96523.00;10370076;28;96917;-65
2022/05/25 21:30:01;;;;;;;2.92;1.15;;;;;;;15.84;47.07;96529.47;10368006;28;98747;-65
2022/05/25 21:35:05;;;;;;;3.47;1.05;;;;;;;15.78;47.49;96532.78;10375011;28;97292;-65
2022/05/25 21:40:11;;;;;;;4.00;1.63;;;;;;;15.80;47.51;96535.25;10360987;28;98145;-65
2022/05/25 21:45:14;;;;;;;4.22;0.77;;;;;;;15.68;48.28;96538.25;10361342;28;97021;-65
2022/05/25 21:50:17;;;;;;;2.28;0.60;;;;;;;15.60;47.97;96546.22;10364966;28;97121;-65
2022/05/25 21:55:24;;;;;;;2.75;1.17;;;;;;;15.58;48.52;96547.34;10361716;28;96877;-65
2022/05/25 22:00:42;;;;;;;2.63;1.00;;;;;;;15.52;48.78;96553.31;10360173;28;97428;-65
2022/05/25 22:05:45;;;;;;;1.45;0.85;;;;;;;15.39;49.21;96565.22;10356530;28;98349;-65
2022/05/25 22:10:49;;;;;;;1.13;0.60;;;;;;;15.24;50.08;96569.53;10358195;28;98909;-65
2022/05/25 22:15:52;;;;;;;1.20;0.77;;;;;;;15.16;49.30;96570.34;10364017;28;97008;-65
2022/05/25 22:21:00;;;;;;;1.20;0.80;;;;;;;15.15;50.06;96574.00;10349820;28;97902;-65
2022/05/25 22:26:04;;;;;;;4.15;0.70;;;;;;;15.14;49.38;96577.59;10363752;28;97556;-65
2022/05/25 22:31:07;;;;;;;2.03;0.87;;;;;;;14.91;50.35;96588.00;10352212;28;97126;-65
2022/05/25 22:36:10;;;;;;;4.43;1.02;;;;;;;14.72;50.45;96583.91;10361509;28;100887;-65
2022/05/25 22:41:14;;;;;;;1.40;0.70;;;;;;;14.60;50.71;96591.31;10350979;28;96911;-65
2022/05/25 22:46:17;;;;;;;5.23;0.97;;;;;;;14.46;50.85;96598.03;10363745;28;97010;-65
2022/05/25 22:51:20;;;;;;;1.45;0.90;;;;;;;14.40;51.15;96590.78;10360192;28;98878;-65
2022/05/25 22:56:26;;;;;;;1.50;0.80;;;;;;;14.24;52.08;96596.81;10361312;28;97104;-65
2022/05/25 23:01:28;;;;;;;1.77;0.90;;;;;;;14.09;52.52;96601.03;10353877;28;97999;-66
2022/05/25 23:06:31;;;;;;;2.33;0.90;;;;;;;14.00;52.60;96611.56;10357679;28;97046;-65
2022/05/25 23:11:35;;;;;;;3.17;0.82;;;;;;;13.94;53.39;96616.63;10357311;28;97033;-65
2022/05/25 23:16:38;;;;;;;1.77;0.70;;;;;;;13.75;53.71;96607.19;10359892;28;97039;-65
2022/05/25 23:21:41;;;;;;;2.83;1.00;;;;;;;13.67;53.55;96599.28;10350556;28;97120;-65
2022/05/25 23:26:45;;;;;;;1.00;0.60;;;;;;;13.57;54.11;96610.72;10356810;28;96767;-65
2022/05/25 23:31:48;;;;;;;2.07;1.00;;;;;;;13.45;53.66;96612.00;10362034;28;96847;-65
2022/05/25 23:36:51;;;;;;;1.42;0.88;;;;;;;13.41;54.75;96615.88;10355989;28;96975;-65
2022/05/25 23:47:16;;;;;;;1.60;0.70;;;;;;;13.35;54.90;96600.78;10368617;28;101498;-65
2022/05/25 23:52:19;;;;;;;1.25;0.90;;;;;;;13.23;55.32;96608.91;10360222;28;97074;-65
2022/05/25 23:57:24;;;;;;;1.33;0.80;;;;;;;13.13;55.58;96608.19;10354649;28;97181;-65
